createdAt,value
2022-11-02T00:01:21.484Z,73.74
2022-11-02T00:03:48.489Z,72.47
2022-11-02T00:06:15.042Z,72.90
2022-11-02T00:08:41.626Z,72.56
2022-11-02T00:11:08.533Z,72.21
2022-11-02T00:13:35.078Z,72.83
2022-11-02T00:16:08.273Z,73.19
2022-11-02T00:18:35.660Z,73.34
2022-11-02T00:21:02.976Z,73.55
2022-11-02T00:23:30.344Z,72.62
2022-11-02T00:26:00.676Z,73.15
2022-11-02T00:28:28.978Z,72.92
2022-11-02T00:30:55.371Z,73.01
2022-11-02T00:33:21.823Z,72.55
2022-11-02T00:35:48.408Z,71.78
2022-11-02T00:38:14.910Z,72.19
2022-11-02T00:40:41.335Z,72.28
2022-11-02T00:43:07.868Z,72.46
2022-11-02T00:45:34.587Z,72.16
2022-11-02T00:48:01.767Z,71.88
2022-11-02T00:50:28.467Z,73.01
2022-11-02T00:52:54.864Z,71.81
2022-11-02T00:55:21.591Z,71.78
2022-11-02T00:57:48.254Z,71.94
2022-11-02T01:00:15.454Z,72.58
2022-11-02T01:02:42.327Z,72.23
2022-11-02T01:05:10.615Z,71.54
2022-11-02T01:07:37.604Z,71.91
2022-11-02T01:10:06.035Z,72.09
2022-11-02T01:12:32.463Z,72.36
2022-11-02T01:14:59.157Z,71.76
2022-11-02T01:17:25.598Z,71.95
2022-11-02T01:19:51.990Z,72.10
2022-11-02T01:22:18.505Z,71.89
2022-11-02T01:24:44.969Z,72.28
2022-11-02T01:27:11.406Z,72.42
2022-11-02T01:29:37.785Z,72.56
2022-11-02T01:32:04.418Z,71.64
2022-11-02T01:34:30.930Z,71.67
2022-11-02T01:36:57.314Z,71.54
2022-11-02T01:39:23.757Z,71.70
2022-11-02T01:41:53.824Z,71.46
2022-11-02T01:44:32.019Z,71.82
2022-11-02T01:47:12.756Z,72.02
2022-11-02T01:49:43.178Z,71.91
2022-11-02T01:52:20.013Z,71.87
2022-11-02T01:55:03.772Z,70.78
2022-11-02T01:57:33.411Z,70.91
2022-11-02T02:00:03.861Z,70.92
2022-11-02T02:02:30.410Z,71.05
2022-11-02T02:08:50.793Z,70.88
2022-11-02T02:11:33.976Z,70.93
2022-11-02T02:14:14.751Z,70.16
2022-11-02T02:16:59.619Z,70.60
2022-11-02T02:19:33.116Z,70.63
2022-11-02T02:22:05.152Z,70.66
2022-11-02T02:24:37.351Z,70.67
2022-11-02T02:27:09.531Z,70.51
2022-11-02T02:29:47.704Z,69.90
2022-11-02T02:32:36.349Z,70.46
2022-11-02T02:35:13.828Z,70.78
2022-11-02T02:37:49.337Z,70.93
2022-11-02T02:40:23.130Z,70.01
2022-11-02T02:43:08.489Z,70.76
2022-11-02T02:45:38.189Z,69.92
2022-11-02T02:48:20.948Z,70.17
2022-11-02T02:50:53.150Z,69.65
2022-11-02T02:53:23.638Z,70.76
2022-11-02T02:55:51.004Z,70.13
2022-11-02T02:58:22.872Z,69.92
2022-11-02T03:00:49.606Z,69.52
2022-11-02T03:03:19.122Z,69.85
2022-11-02T03:05:56.846Z,70.26
2022-11-02T03:08:24.017Z,69.56
2022-11-02T03:10:58.024Z,69.83
2022-11-02T03:13:33.381Z,69.93
2022-11-02T03:16:23.896Z,69.96
2022-11-02T03:19:19.606Z,69.86
2022-11-02T03:21:53.839Z,69.89
2022-11-02T03:24:30.351Z,70.37
2022-11-02T03:27:37.374Z,70.09
2022-11-02T03:30:12.003Z,70.34
2022-11-02T03:32:45.026Z,69.88
2022-11-02T03:35:28.756Z,70.05
2022-11-02T03:38:32.775Z,70.05
2022-11-02T03:41:01.366Z,69.88
2022-11-02T03:43:28.945Z,69.74
2022-11-02T03:46:00.937Z,69.86
2022-11-02T03:48:32.276Z,70.09
2022-11-02T03:51:03.945Z,70.32
2022-11-02T03:53:46.574Z,70.35
2022-11-02T03:56:21.294Z,69.78
2022-11-02T03:58:47.729Z,70.74
2022-11-02T04:01:16.832Z,70.24
2022-11-02T04:03:46.005Z,70.00
2022-11-02T04:06:12.952Z,69.42
2022-11-02T04:08:42.281Z,69.65
2022-11-02T04:11:27.710Z,69.54
2022-11-02T04:14:12.829Z,69.72
2022-11-02T04:16:39.768Z,69.29
2022-11-02T04:19:24.934Z,70.10
2022-11-02T04:22:10.148Z,69.92
2022-11-02T04:24:54.820Z,69.87
2022-11-02T04:27:21.507Z,69.95
2022-11-02T04:29:48.316Z,70.05
2022-11-02T04:32:14.706Z,70.66
2022-11-02T04:34:41.104Z,70.19
2022-11-02T04:37:27.481Z,69.69
2022-11-02T04:39:53.963Z,69.97
2022-11-02T04:42:20.327Z,70.42
2022-11-02T04:44:46.752Z,69.85
2022-11-02T04:47:13.174Z,69.91
2022-11-02T04:49:39.628Z,70.03
2022-11-02T04:52:06.035Z,70.14
2022-11-02T04:54:32.432Z,70.28
2022-11-02T04:56:58.871Z,70.40
2022-11-02T04:59:25.286Z,70.24
2022-11-02T05:01:51.807Z,70.14
2022-11-02T05:04:18.311Z,70.59
2022-11-02T05:06:44.744Z,69.70
2022-11-02T05:09:11.215Z,70.14
2022-11-02T05:11:37.633Z,69.84
2022-11-02T05:14:04.243Z,69.74
2022-11-02T05:16:30.863Z,69.88
2022-11-02T05:18:57.462Z,70.22
2022-11-02T05:21:24.003Z,69.38
2022-11-02T05:23:50.426Z,70.13
2022-11-02T05:26:16.840Z,69.37
2022-11-02T05:28:43.272Z,69.08
2022-11-02T05:31:09.709Z,69.83
2022-11-02T05:33:36.585Z,69.39
2022-11-02T05:36:03.519Z,69.90
2022-11-02T05:38:30.192Z,69.81
2022-11-02T05:40:58.592Z,69.74
2022-11-02T05:43:25.823Z,69.68
2022-11-02T05:45:57.048Z,69.19
2022-11-02T05:48:24.392Z,70.09
2022-11-02T05:50:55.819Z,69.74
2022-11-02T05:53:22.396Z,70.08
2022-11-02T05:55:48.923Z,70.26
2022-11-02T05:58:15.391Z,70.29
2022-11-02T06:00:41.824Z,69.89
2022-11-02T06:03:08.245Z,70.36
2022-11-02T06:05:35.095Z,70.17
2022-11-02T06:08:02.537Z,70.39
2022-11-02T06:10:30.732Z,70.42
2022-11-02T06:12:59.423Z,70.57
2022-11-02T06:15:26.734Z,70.21
2022-11-02T06:17:53.323Z,69.98
2022-11-02T06:20:20.794Z,70.13
2022-11-02T06:22:47.469Z,69.79
2022-11-02T06:25:14.463Z,69.97
2022-11-02T06:27:45.827Z,69.47
2022-11-02T06:30:12.576Z,69.86
2022-11-02T06:32:39.028Z,69.88
2022-11-02T06:35:06.071Z,70.00
2022-11-02T06:37:34.436Z,70.31
2022-11-02T06:40:00.916Z,69.97
2022-11-02T06:42:27.488Z,69.71
2022-11-02T06:44:53.959Z,70.07
2022-11-02T06:47:20.388Z,69.56
2022-11-02T06:49:46.801Z,69.87
2022-11-02T06:52:13.573Z,69.82
2022-11-02T06:54:40.021Z,69.65
2022-11-02T06:57:06.940Z,69.46
2022-11-02T06:59:33.862Z,70.13
2022-11-02T07:02:00.431Z,69.92
2022-11-02T07:04:27.122Z,69.96
2022-11-02T07:06:53.683Z,69.46
2022-11-02T07:09:20.236Z,69.77
2022-11-02T07:11:46.932Z,69.84
2022-11-02T07:14:13.633Z,69.87
2022-11-02T07:16:40.488Z,69.22
2022-11-02T07:19:07.066Z,69.55
2022-11-02T07:21:33.741Z,69.88
2022-11-02T07:24:00.414Z,69.69
2022-11-02T07:26:27.228Z,69.44
2022-11-02T07:28:58.259Z,69.52
2022-11-02T07:31:24.892Z,69.70
2022-11-02T07:33:51.314Z,68.84
2022-11-02T07:36:17.909Z,69.21
2022-11-02T07:38:44.368Z,68.64
2022-11-02T07:41:10.931Z,67.88
2022-11-02T07:43:41.297Z,67.98
2022-11-02T07:46:11.661Z,67.10
2022-11-02T07:48:38.433Z,67.38
2022-11-02T07:51:07.242Z,65.89
2022-11-02T07:53:34.371Z,65.56
2022-11-02T07:56:01.463Z,65.62
2022-11-02T07:58:27.929Z,65.42
2022-11-02T08:01:01.028Z,64.05
2022-11-02T08:03:28.652Z,64.61
2022-11-02T08:05:55.517Z,64.88
2022-11-02T08:08:24.573Z,64.27
2022-11-02T08:10:52.525Z,64.44
2022-11-02T08:13:22.200Z,64.49
2022-11-02T08:15:50.865Z,64.37
2022-11-02T08:18:20.052Z,63.24
2022-11-02T08:20:47.851Z,63.10
2022-11-02T08:23:19.419Z,63.33
2022-11-02T08:25:47.808Z,62.78
2022-11-02T08:28:23.994Z,63.61
2022-11-02T08:30:50.738Z,63.53
2022-11-02T08:33:19.241Z,63.20
2022-11-02T08:35:46.930Z,63.82
2022-11-02T08:38:13.945Z,63.99
2022-11-02T08:40:41.106Z,63.80
2022-11-02T08:43:10.651Z,63.12
2022-11-02T08:46:12.594Z,63.63
2022-11-02T08:48:25.875Z,64.00
2022-11-02T08:50:52.589Z,64.01
2022-11-02T08:53:19.047Z,64.56
2022-11-02T08:55:45.449Z,63.81
2022-11-02T08:58:11.863Z,64.18
2022-11-02T09:00:38.335Z,63.90
2022-11-02T09:03:08.135Z,63.63
2022-11-02T09:05:37.889Z,61.91
2022-11-02T09:08:06.868Z,62.12
2022-11-02T09:10:35.708Z,60.61
2022-11-02T09:13:04.274Z,60.89
2022-11-02T09:15:33.704Z,58.85
2022-11-02T09:18:00.192Z,57.35
2022-11-02T09:20:26.669Z,55.12
2022-11-02T09:22:53.208Z,54.57
2022-11-02T09:25:19.781Z,53.71
2022-11-02T09:27:47.225Z,52.97
2022-11-02T09:30:15.805Z,52.23
2022-11-02T09:32:42.348Z,49.90
2022-11-02T09:35:11.867Z,49.50
2022-11-02T09:37:38.556Z,47.89
2022-11-02T09:40:06.270Z,47.81
2022-11-02T09:42:43.773Z,46.22
2022-11-02T09:45:16.840Z,46.72
2022-11-02T09:48:26.817Z,46.89
2022-11-02T09:50:59.291Z,47.02
2022-11-02T09:53:40.811Z,47.27
2022-11-02T09:56:08.961Z,46.31
2022-11-02T09:58:39.485Z,45.75
2022-11-02T10:01:28.473Z,44.47
2022-11-02T10:03:54.824Z,45.07
2022-11-02T10:06:25.595Z,45.29
2022-11-02T10:08:57.938Z,45.44
2022-11-02T10:12:03.971Z,44.46
2022-11-02T10:14:35.346Z,43.58
2022-11-02T10:17:13.186Z,43.76
2022-11-02T10:19:41.990Z,43.39
2022-11-02T10:22:13.016Z,42.35
2022-11-02T10:24:43.415Z,42.67
2022-11-02T10:27:29.450Z,43.44
2022-11-02T10:30:03.288Z,43.08
2022-11-02T10:32:32.283Z,43.85
2022-11-02T10:35:17.637Z,43.33
2022-11-02T10:38:03.249Z,43.67
2022-11-02T10:40:54.631Z,43.28
2022-11-02T10:43:58.954Z,42.76
2022-11-02T10:46:42.256Z,42.07
2022-11-02T10:49:48.972Z,41.21
2022-11-02T10:52:17.495Z,41.91
2022-11-02T10:54:44.235Z,41.27
2022-11-02T10:57:12.975Z,40.71
2022-11-02T10:59:39.972Z,41.41
2022-11-02T11:02:14.867Z,40.23
2022-11-02T11:04:42.616Z,41.31
2022-11-02T11:07:26.432Z,40.62
2022-11-02T11:09:57.463Z,39.97
2022-11-02T11:12:31.903Z,39.53
2022-11-02T11:20:39.527Z,43.29
2022-11-02T11:23:15.782Z,44.44
2022-11-02T11:25:42.938Z,44.99
2022-11-02T11:28:53.040Z,45.61
2022-11-02T11:31:19.942Z,45.07
2022-11-02T11:33:52.331Z,45.55
2022-11-02T11:36:45.029Z,45.34
2022-11-02T11:39:28.143Z,45.91
2022-11-02T11:41:55.265Z,46.62
2022-11-02T11:47:11.790Z,46.88
2022-11-02T11:50:09.928Z,47.02
2022-11-02T11:52:34.773Z,46.81
2022-11-02T11:55:18.823Z,46.46
2022-11-02T11:57:45.465Z,46.77
2022-11-02T12:00:27.606Z,46.56
2022-11-02T12:03:13.686Z,47.25
2022-11-02T12:06:07.529Z,47.88
2022-11-02T12:08:42.590Z,47.36
2022-11-02T12:11:55.515Z,46.10
2022-11-02T12:14:40.756Z,44.44
2022-11-02T12:17:19.494Z,45.50
2022-11-02T12:20:17.266Z,45.35
2022-11-02T12:23:05.660Z,45.64
2022-11-02T12:26:05.906Z,44.52
2022-11-02T12:29:04.349Z,42.57
2022-11-02T12:31:38.548Z,41.39
2022-11-02T12:34:21.896Z,40.68
2022-11-02T12:37:37.188Z,41.01
2022-11-02T12:40:33.086Z,41.53
2022-11-02T12:43:08.440Z,39.27
2022-11-02T12:46:00.124Z,36.67
2022-11-02T12:48:42.324Z,36.88
2022-11-02T12:51:18.069Z,38.52
2022-11-02T12:53:54.250Z,38.28
2022-11-02T12:56:25.282Z,37.37
2022-11-02T12:58:52.050Z,38.01
2022-11-02T13:01:35.261Z,38.36
2022-11-02T13:04:14.620Z,39.44
2022-11-02T13:06:50.198Z,40.08
2022-11-02T13:09:24.512Z,39.72
2022-11-02T13:12:02.304Z,40.39
2022-11-02T13:14:40.820Z,40.30
2022-11-02T13:17:25.279Z,40.42
2022-11-02T13:20:12.438Z,40.77
2022-11-02T13:22:41.094Z,41.16
2022-11-02T13:25:16.371Z,41.07
2022-11-02T13:27:50.011Z,41.25
2022-11-02T13:30:18.228Z,41.46
2022-11-02T13:32:50.220Z,41.76
2022-11-02T13:35:23.881Z,41.09
2022-11-02T13:38:02.073Z,41.63
2022-11-02T13:40:36.521Z,42.19
2022-11-02T13:43:27.170Z,41.96
2022-11-02T13:45:59.323Z,41.75
2022-11-02T13:48:39.870Z,41.54
2022-11-02T13:51:13.654Z,42.23
2022-11-02T13:53:49.060Z,42.28
2022-11-02T13:56:24.311Z,42.11
2022-11-02T13:58:57.962Z,41.84
2022-11-02T14:01:25.539Z,41.98
2022-11-02T14:04:04.128Z,42.16
2022-11-02T14:06:34.491Z,42.62
2022-11-02T14:09:18.805Z,42.46
2022-11-02T14:11:48.277Z,42.74
2022-11-02T14:14:23.315Z,42.75
2022-11-02T14:16:49.775Z,42.47
2022-11-02T14:19:19.563Z,42.70
2022-11-02T14:21:49.774Z,42.29
2022-11-02T14:24:36.410Z,42.72
2022-11-02T14:27:11.833Z,42.03
2022-11-02T14:29:47.199Z,42.27
2022-11-02T14:32:23.958Z,41.79
2022-11-02T14:35:12.072Z,41.82
2022-11-02T14:37:49.797Z,42.56
2022-11-02T14:40:51.427Z,43.44
2022-11-02T14:43:36.115Z,42.56
2022-11-02T14:46:10.240Z,43.33
2022-11-02T14:48:54.947Z,43.75
2022-11-02T14:51:27.856Z,43.72
2022-11-02T14:53:58.782Z,43.39
2022-11-02T14:56:45.223Z,43.64
2022-11-02T14:59:22.550Z,43.44
2022-11-02T15:02:04.387Z,43.25
2022-11-02T15:04:32.704Z,43.16
2022-11-02T15:07:02.460Z,43.51
2022-11-02T15:09:50.659Z,43.37
2022-11-02T15:12:31.994Z,43.34
2022-11-02T15:15:02.715Z,43.70
2022-11-02T15:17:29.067Z,43.87
2022-11-02T15:19:58.581Z,43.34
2022-11-02T15:22:47.517Z,43.79
2022-11-02T15:25:20.383Z,43.42
2022-11-02T15:27:51.274Z,43.69
2022-11-02T15:30:25.296Z,43.41
2022-11-02T15:33:01.900Z,43.10
2022-11-02T15:35:37.607Z,43.27
2022-11-02T15:38:30.395Z,42.89
2022-11-02T15:41:06.404Z,43.23
2022-11-02T15:49:13.601Z,43.33
2022-11-02T15:51:43.078Z,43.91
2022-11-02T16:04:54.807Z,44.04
2022-11-02T16:07:29.173Z,43.75
2022-11-02T16:10:24.413Z,44.25
2022-11-02T16:18:22.396Z,44.18
2022-11-02T16:20:48.976Z,44.49
2022-11-02T16:23:24.872Z,44.46
2022-11-02T16:25:54.412Z,44.81
2022-11-02T16:28:28.914Z,44.71
2022-11-02T16:31:19.248Z,45.13
2022-11-02T16:33:53.027Z,44.93
2022-11-02T16:36:31.168Z,45.03
2022-11-02T16:39:14.184Z,44.95
2022-11-02T16:41:41.226Z,45.49
2022-11-02T16:44:10.326Z,45.17
2022-11-02T16:46:49.867Z,45.57
2022-11-02T16:49:18.739Z,44.94
2022-11-02T16:51:57.013Z,45.46
2022-11-02T16:54:42.086Z,45.46
2022-11-02T16:57:28.265Z,45.75
2022-11-02T16:59:57.580Z,45.55
2022-11-02T17:02:32.940Z,46.00
2022-11-02T17:05:04.785Z,45.88
2022-11-02T17:07:37.113Z,45.83
2022-11-02T17:10:05.927Z,45.83
2022-11-02T17:12:43.381Z,46.00
2022-11-02T17:15:18.516Z,46.05
2022-11-02T17:17:44.997Z,46.33
2022-11-02T17:20:11.672Z,46.49
2022-11-02T17:22:48.404Z,45.90
2022-11-02T17:25:27.071Z,46.66
2022-11-02T17:27:55.677Z,46.60
2022-11-02T17:30:34.481Z,46.56
2022-11-02T17:33:08.652Z,46.73
2022-11-02T17:35:35.431Z,46.51
2022-11-02T17:38:02.968Z,46.93
2022-11-02T17:40:29.742Z,46.91
2022-11-02T17:42:59.309Z,47.10
2022-11-02T17:45:28.321Z,47.18
2022-11-02T17:47:59.419Z,47.28
2022-11-02T17:50:27.817Z,46.89
2022-11-02T17:52:54.746Z,47.18
2022-11-02T17:55:23.894Z,47.75
2022-11-02T17:57:50.582Z,48.02
2022-11-02T18:00:18.156Z,47.94
2022-11-02T18:02:47.924Z,48.00
2022-11-02T18:05:28.140Z,48.12
2022-11-02T18:07:56.050Z,48.02
2022-11-02T18:10:25.422Z,48.38
2022-11-02T18:12:52.100Z,48.27
2022-11-02T18:15:30.263Z,48.33
2022-11-02T18:17:56.853Z,48.52
2022-11-02T18:20:24.065Z,48.78
2022-11-02T18:22:50.691Z,48.94
2022-11-02T18:25:18.404Z,48.68
2022-11-02T18:27:45.900Z,48.92
2022-11-02T18:30:15.082Z,48.58
2022-11-02T18:35:16.095Z,48.67
2022-11-02T18:37:42.677Z,48.17
2022-11-02T18:40:11.601Z,48.16
2022-11-02T18:42:39.247Z,48.39
2022-11-02T18:45:06.645Z,48.49
2022-11-02T18:47:33.744Z,48.21
2022-11-02T18:50:00.765Z,48.37
2022-11-02T18:52:32.095Z,48.10
2022-11-02T18:55:03.494Z,48.31
2022-11-02T18:57:30.296Z,48.35
2022-11-02T18:59:56.731Z,48.27
2022-11-02T19:02:23.344Z,48.29
2022-11-02T19:04:49.782Z,48.08
2022-11-02T19:07:34.956Z,48.48
2022-11-02T19:10:03.876Z,48.56
2022-11-02T19:12:31.032Z,48.85
2022-11-02T19:14:57.842Z,48.60
2022-11-02T19:17:25.901Z,48.58
2022-11-02T19:19:52.703Z,48.84
2022-11-02T19:22:21.509Z,48.89
2022-11-02T19:24:47.981Z,48.85
2022-11-02T19:27:17.520Z,49.48
2022-11-02T19:29:44.239Z,49.33
2022-11-02T19:32:10.785Z,49.37
2022-11-02T19:34:38.163Z,49.53
2022-11-02T19:37:06.372Z,49.63
2022-11-02T19:39:33.257Z,49.19
2022-11-02T19:41:59.792Z,50.17
2022-11-02T19:44:26.509Z,49.75
2022-11-02T19:46:53.001Z,49.93
2022-11-02T19:49:19.420Z,49.89
2022-11-02T19:51:45.860Z,50.74
2022-11-02T19:54:12.474Z,50.71
2022-11-02T19:56:38.852Z,50.67
2022-11-02T19:59:06.420Z,51.38
2022-11-02T20:01:35.747Z,51.31
2022-11-02T20:04:02.968Z,51.14
2022-11-02T20:06:33.754Z,51.47
2022-11-02T20:09:07.099Z,51.68
2022-11-02T20:11:33.914Z,51.78
2022-11-02T20:14:02.275Z,52.06
2022-11-02T20:16:28.822Z,52.27
2022-11-02T20:18:56.021Z,52.20
2022-11-02T20:21:30.209Z,51.79
2022-11-02T20:24:00.873Z,51.91
2022-11-02T20:26:33.484Z,52.64
2022-11-02T20:29:01.610Z,52.37
2022-11-02T20:31:34.058Z,52.27
2022-11-02T20:34:00.957Z,52.69
2022-11-02T20:36:28.398Z,52.99
2022-11-02T20:38:56.109Z,52.70
2022-11-02T20:41:24.183Z,52.78
2022-11-02T20:43:52.275Z,52.84
2022-11-02T20:46:42.907Z,53.00
2022-11-02T20:49:22.076Z,52.71
2022-11-02T20:51:56.134Z,53.03
2022-11-02T20:54:22.577Z,52.96
2022-11-02T20:56:49.887Z,53.20
2022-11-02T20:59:16.409Z,53.21
2022-11-02T21:01:42.954Z,53.39
2022-11-02T21:04:09.930Z,53.45
2022-11-02T21:06:38.260Z,53.34
2022-11-02T21:09:09.085Z,53.74
2022-11-02T21:11:56.947Z,53.71
2022-11-02T21:14:23.491Z,54.27
2022-11-02T21:16:49.995Z,54.03
2022-11-02T21:19:16.465Z,54.39
2022-11-02T21:21:43.026Z,54.95
2022-11-02T21:24:09.808Z,54.68
2022-11-02T21:26:36.566Z,54.27
2022-11-02T21:29:03.291Z,54.43
2022-11-02T21:31:29.671Z,54.15
2022-11-02T21:33:56.067Z,54.29
2022-11-02T21:36:22.447Z,54.50
2022-11-02T21:38:48.979Z,55.11
2022-11-02T21:41:19.481Z,55.37
2022-11-02T21:43:45.961Z,55.08
2022-11-02T21:46:12.480Z,54.97
2022-11-02T21:48:39.212Z,54.81
2022-11-02T21:51:24.755Z,55.32
2022-11-02T21:53:51.835Z,55.82
2022-11-02T21:56:21.424Z,56.25
2022-11-02T21:58:48.255Z,55.75
2022-11-02T22:01:44.720Z,55.67
2022-11-02T22:04:24.934Z,56.10
2022-11-02T22:06:52.180Z,56.29
2022-11-02T22:09:18.900Z,56.36
2022-11-02T22:11:45.445Z,56.44
2022-11-02T22:14:12.822Z,56.17
2022-11-02T22:16:42.229Z,56.17
2022-11-02T22:19:11.449Z,56.49
2022-11-02T22:21:43.471Z,56.32
2022-11-02T22:24:10.828Z,56.19
2022-11-02T22:26:39.061Z,56.10
2022-11-02T22:29:06.369Z,56.76
2022-11-02T22:31:35.851Z,56.57
2022-11-02T22:34:04.427Z,56.31
2022-11-02T22:36:33.085Z,56.43
2022-11-02T22:39:01.285Z,56.09
2022-11-02T22:41:38.108Z,57.60
2022-11-02T22:44:15.512Z,56.88
2022-11-02T22:46:44.297Z,57.70
2022-11-02T22:49:12.719Z,57.33
2022-11-02T22:51:41.648Z,57.24
2022-11-02T22:54:11.695Z,57.53
2022-11-02T22:56:38.406Z,57.71
2022-11-02T22:59:05.928Z,58.53
2022-11-02T23:01:33.457Z,59.07
2022-11-02T23:04:01.117Z,58.75
2022-11-02T23:06:28.157Z,58.95
2022-11-02T23:08:57.455Z,59.22
2022-11-02T23:11:29.845Z,58.59
2022-11-02T23:14:22.654Z,59.09
2022-11-02T23:16:49.047Z,59.06
2022-11-02T23:19:30.521Z,59.36
2022-11-02T23:22:23.678Z,59.92
2022-11-02T23:25:17.189Z,60.21
2022-11-02T23:28:12.626Z,59.59
2022-11-02T23:30:58.209Z,59.79
2022-11-02T23:33:29.462Z,59.84
2022-11-02T23:36:11.171Z,59.93
2022-11-02T23:39:14.648Z,60.29
2022-11-02T23:41:41.550Z,60.33
2022-11-02T23:44:14.494Z,61.09
2022-11-02T23:46:42.551Z,60.92
2022-11-02T23:49:09.722Z,60.33
2022-11-02T23:51:54.848Z,60.22
2022-11-02T23:54:39.848Z,60.53
2022-11-02T23:57:06.518Z,59.71
2022-11-02T23:59:33.160Z,60.10
